sensor_id;sensor_type;location;lat;lon;timestamp;P1;P2;P0
70241;PMS5003;57631;52.218;0.108;2022-07-29T00:02:05;7;5;
70241;PMS5003;57631;52.218;0.108;2022-07-29T00:04:30;6;4;
70241;PMS5003;57631;52.218;0.108;2022-07-29T00:06:55;3;3;
70241;PMS5003;57631;52.218;0.108;2022-07-29T00:09:21;6;4;
70241;PMS5003;57631;52.218;0.108;2022-07-29T00:11:46;5;4;
70241;PMS5003;57631;52.218;0.108;2022-07-29T00:14:11;5;4;
70241;PMS5003;57631;52.218;0.108;2022-07-29T00:16:37;6;3;
70241;PMS5003;57631;52.218;0.108;2022-07-29T00:19:03;4;4;
70241;PMS5003;57631;52.218;0.108;2022-07-29T00:21:28;7;6;
70241;PMS5003;57631;52.218;0.108;2022-07-29T00:23:53;5;5;
70241;PMS5003;57631;52.218;0.108;2022-07-29T00:26:19;3;3;
70241;PMS5003;57631;52.218;0.108;2022-07-29T00:28:44;6;3;
70241;PMS5003;57631;52.218;0.108;2022-07-29T00:31:10;2;2;
70241;PMS5003;57631;52.218;0.108;2022-07-29T00:33:35;7;4;
70241;PMS5003;57631;52.218;0.108;2022-07-29T00:36:00;4;4;
70241;PMS5003;57631;52.218;0.108;2022-07-29T00:38:26;8;6;
70241;PMS5003;57631;52.218;0.108;2022-07-29T00:40:51;4;4;
70241;PMS5003;57631;52.218;0.108;2022-07-29T00:43:17;7;5;
70241;PMS5003;57631;52.218;0.108;2022-07-29T00:45:42;3;3;
70241;PMS5003;57631;52.218;0.108;2022-07-29T00:48:08;4;4;
70241;PMS5003;57631;52.218;0.108;2022-07-29T00:50:33;3;3;
70241;PMS5003;57631;52.218;0.108;2022-07-29T00:52:59;7;6;
70241;PMS5003;57631;52.218;0.108;2022-07-29T00:55:24;4;4;
70241;PMS5003;57631;52.218;0.108;2022-07-29T00:57:49;2;2;
70241;PMS5003;57631;52.218;0.108;2022-07-29T01:00:16;4;4;
70241;PMS5003;57631;52.218;0.108;2022-07-29T01:02:40;3;3;
70241;PMS5003;57631;52.218;0.108;2022-07-29T01:05:06;5;3;
70241;PMS5003;57631;52.218;0.108;2022-07-29T01:07:31;3;3;
70241;PMS5003;57631;52.218;0.108;2022-07-29T01:09:56;4;4;
70241;PMS5003;57631;52.218;0.108;2022-07-29T01:12:23;7;5;
70241;PMS5003;57631;52.218;0.108;2022-07-29T01:14:47;4;4;
70241;PMS5003;57631;52.218;0.108;2022-07-29T01:17:14;4;4;
70241;PMS5003;57631;52.218;0.108;2022-07-29T01:19:45;7;4;
70241;PMS5003;57631;52.218;0.108;2022-07-29T01:22:08;5;4;
70241;PMS5003;57631;52.218;0.108;2022-07-29T01:24:32;5;5;
70241;PMS5003;57631;52.218;0.108;2022-07-29T01:26:56;7;5;
70241;PMS5003;57631;52.218;0.108;2022-07-29T01:29:22;5;5;
70241;PMS5003;57631;52.218;0.108;2022-07-29T01:31:47;5;5;
70241;PMS5003;57631;52.218;0.108;2022-07-29T01:34:11;6;5;
70241;PMS5003;57631;52.218;0.108;2022-07-29T01:36:37;8;5;
70241;PMS5003;57631;52.218;0.108;2022-07-29T01:39:04;6;6;
70241;PMS5003;57631;52.218;0.108;2022-07-29T01:41:27;4;4;
70241;PMS5003;57631;52.218;0.108;2022-07-29T01:43:54;4;4;
70241;PMS5003;57631;52.218;0.108;2022-07-29T01:46:20;6;4;
70241;PMS5003;57631;52.218;0.108;2022-07-29T01:48:45;4;4;
70241;PMS5003;57631;52.218;0.108;2022-07-29T01:51:10;5;5;
70241;PMS5003;57631;52.218;0.108;2022-07-29T01:53:35;6;6;
70241;PMS5003;57631;52.218;0.108;2022-07-29T01:56:00;5;5;
70241;PMS5003;57631;52.218;0.108;2022-07-29T01:58:25;6;5;
70241;PMS5003;57631;52.218;0.108;2022-07-29T02:00:51;5;5;
70241;PMS5003;57631;52.218;0.108;2022-07-29T02:03:16;8;6;
70241;PMS5003;57631;52.218;0.108;2022-07-29T02:05:42;6;4;
70241;PMS5003;57631;52.218;0.108;2022-07-29T02:08:07;4;4;
70241;PMS5003;57631;52.218;0.108;2022-07-29T02:10:33;4;4;
70241;PMS5003;57631;52.218;0.108;2022-07-29T02:12:58;6;6;
70241;PMS5003;57631;52.218;0.108;2022-07-29T02:15:24;7;7;
70241;PMS5003;57631;52.218;0.108;2022-07-29T02:17:50;4;4;
70241;PMS5003;57631;52.218;0.108;2022-07-29T02:20:15;6;5;
70241;PMS5003;57631;52.218;0.108;2022-07-29T02:22:40;6;6;
70241;PMS5003;57631;52.218;0.108;2022-07-29T02:25:06;6;4;
70241;PMS5003;57631;52.218;0.108;2022-07-29T02:27:31;7;5;
70241;PMS5003;57631;52.218;0.108;2022-07-29T02:29:57;8;6;
70241;PMS5003;57631;52.218;0.108;2022-07-29T02:32:22;6;6;
70241;PMS5003;57631;52.218;0.108;2022-07-29T02:34:47;6;5;
70241;PMS5003;57631;52.218;0.108;2022-07-29T02:37:13;7;4;
70241;PMS5003;57631;52.218;0.108;2022-07-29T02:39:38;6;5;
70241;PMS5003;57631;52.218;0.108;2022-07-29T02:42:05;6;6;
70241;PMS5003;57631;52.218;0.108;2022-07-29T02:44:29;7;5;
70241;PMS5003;57631;52.218;0.108;2022-07-29T02:47:02;5;5;
70241;PMS5003;57631;52.218;0.108;2022-07-29T02:49:25;8;5;
70241;PMS5003;57631;52.218;0.108;2022-07-29T02:51:46;5;5;
70241;PMS5003;57631;52.218;0.108;2022-07-29T02:54:14;6;6;
70241;PMS5003;57631;52.218;0.108;2022-07-29T02:56:36;8;7;
70241;PMS5003;57631;52.218;0.108;2022-07-29T02:59:03;6;6;
70241;PMS5003;57631;52.218;0.108;2022-07-29T03:01:29;6;6;
70241;PMS5003;57631;52.218;0.108;2022-07-29T03:03:53;8;7;
70241;PMS5003;57631;52.218;0.108;2022-07-29T03:06:19;8;8;
70241;PMS5003;57631;52.218;0.108;2022-07-29T03:08:44;7;7;
70241;PMS5003;57631;52.218;0.108;2022-07-29T03:11:09;8;6;
70241;PMS5003;57631;52.218;0.108;2022-07-29T03:13:35;8;8;
70241;PMS5003;57631;52.218;0.108;2022-07-29T03:16:00;6;6;
70241;PMS5003;57631;52.218;0.108;2022-07-29T03:18:26;9;7;
70241;PMS5003;57631;52.218;0.108;2022-07-29T03:20:51;6;6;
70241;PMS5003;57631;52.218;0.108;2022-07-29T03:23:18;7;6;
70241;PMS5003;57631;52.218;0.108;2022-07-29T03:25:42;8;6;
70241;PMS5003;57631;52.218;0.108;2022-07-29T03:28:07;10;9;
70241;PMS5003;57631;52.218;0.108;2022-07-29T03:30:33;10;7;
70241;PMS5003;57631;52.218;0.108;2022-07-29T03:32:58;9;8;
70241;PMS5003;57631;52.218;0.108;2022-07-29T03:35:24;5;5;
70241;PMS5003;57631;52.218;0.108;2022-07-29T03:37:49;9;6;
70241;PMS5003;57631;52.218;0.108;2022-07-29T03:40:16;8;7;
70241;PMS5003;57631;52.218;0.108;2022-07-29T03:42:40;11;7;
70241;PMS5003;57631;52.218;0.108;2022-07-29T03:45:07;6;6;
70241;PMS5003;57631;52.218;0.108;2022-07-29T03:47:31;6;6;
70241;PMS5003;57631;52.218;0.108;2022-07-29T03:50:02;6;6;
70241;PMS5003;57631;52.218;0.108;2022-07-29T03:52:22;7;7;
70241;PMS5003;57631;52.218;0.108;2022-07-29T03:54:47;5;5;
70241;PMS5003;57631;52.218;0.108;2022-07-29T03:57:13;6;6;
70241;PMS5003;57631;52.218;0.108;2022-07-29T03:59:38;5;5;
70241;PMS5003;57631;52.218;0.108;2022-07-29T04:02:04;10;6;
70241;PMS5003;57631;52.218;0.108;2022-07-29T04:04:32;5;5;
70241;PMS5003;57631;52.218;0.108;2022-07-29T04:06:55;10;6;
70241;PMS5003;57631;52.218;0.108;2022-07-29T04:09:20;6;6;
70241;PMS5003;57631;52.218;0.108;2022-07-29T04:11:46;8;4;
70241;PMS5003;57631;52.218;0.108;2022-07-29T04:14:11;6;5;
70241;PMS5003;57631;52.218;0.108;2022-07-29T04:16:37;7;5;
70241;PMS5003;57631;52.218;0.108;2022-07-29T04:19:02;9;6;
70241;PMS5003;57631;52.218;0.108;2022-07-29T04:21:28;4;4;
70241;PMS5003;57631;52.218;0.108;2022-07-29T04:23:53;5;5;
70241;PMS5003;57631;52.218;0.108;2022-07-29T04:26:19;10;7;
70241;PMS5003;57631;52.218;0.108;2022-07-29T04:28:44;6;6;
70241;PMS5003;57631;52.218;0.108;2022-07-29T04:31:10;8;7;
70241;PMS5003;57631;52.218;0.108;2022-07-29T04:33:35;5;5;
70241;PMS5003;57631;52.218;0.108;2022-07-29T04:36:00;8;4;
70241;PMS5003;57631;52.218;0.108;2022-07-29T04:38:26;5;5;
70241;PMS5003;57631;52.218;0.108;2022-07-29T04:40:51;9;6;
70241;PMS5003;57631;52.218;0.108;2022-07-29T04:43:16;7;7;
70241;PMS5003;57631;52.218;0.108;2022-07-29T04:45:42;5;5;
70241;PMS5003;57631;52.218;0.108;2022-07-29T04:48:08;7;5;
70241;PMS5003;57631;52.218;0.108;2022-07-29T04:50:33;8;7;
70241;PMS5003;57631;52.218;0.108;2022-07-29T04:52:58;6;6;
70241;PMS5003;57631;52.218;0.108;2022-07-29T04:55:24;5;5;
70241;PMS5003;57631;52.218;0.108;2022-07-29T04:57:49;5;4;
70241;PMS5003;57631;52.218;0.108;2022-07-29T05:00:15;5;5;
70241;PMS5003;57631;52.218;0.108;2022-07-29T05:02:40;6;5;
70241;PMS5003;57631;52.218;0.108;2022-07-29T05:05:06;7;6;
70241;PMS5003;57631;52.218;0.108;2022-07-29T05:07:31;7;7;
70241;PMS5003;57631;52.218;0.108;2022-07-29T05:09:57;6;4;
70241;PMS5003;57631;52.218;0.108;2022-07-29T05:12:22;8;7;
70241;PMS5003;57631;52.218;0.108;2022-07-29T05:14:48;8;7;
70241;PMS5003;57631;52.218;0.108;2022-07-29T05:17:13;7;6;
70241;PMS5003;57631;52.218;0.108;2022-07-29T05:19:39;7;5;
70241;PMS5003;57631;52.218;0.108;2022-07-29T05:22:04;7;7;
70241;PMS5003;57631;52.218;0.108;2022-07-29T05:24:30;6;6;
70241;PMS5003;57631;52.218;0.108;2022-07-29T05:26:55;5;5;
70241;PMS5003;57631;52.218;0.108;2022-07-29T05:29:21;7;7;
70241;PMS5003;57631;52.218;0.108;2022-07-29T05:31:46;7;6;
70241;PMS5003;57631;52.218;0.108;2022-07-29T05:34:11;6;6;
70241;PMS5003;57631;52.218;0.108;2022-07-29T05:36:37;6;6;
70241;PMS5003;57631;52.218;0.108;2022-07-29T05:39:02;5;4;
70241;PMS5003;57631;52.218;0.108;2022-07-29T05:41:28;9;6;
70241;PMS5003;57631;52.218;0.108;2022-07-29T05:43:53;5;5;
70241;PMS5003;57631;52.218;0.108;2022-07-29T05:46:19;6;4;
70241;PMS5003;57631;52.218;0.108;2022-07-29T05:48:44;7;4;
70241;PMS5003;57631;52.218;0.108;2022-07-29T05:51:10;7;6;
70241;PMS5003;57631;52.218;0.108;2022-07-29T05:53:35;5;4;
70241;PMS5003;57631;52.218;0.108;2022-07-29T05:56:02;5;5;
70241;PMS5003;57631;52.218;0.108;2022-07-29T05:58:26;6;5;
70241;PMS5003;57631;52.218;0.108;2022-07-29T06:00:51;7;6;
70241;PMS5003;57631;52.218;0.108;2022-07-29T06:03:16;4;4;
70241;PMS5003;57631;52.218;0.108;2022-07-29T06:05:42;7;7;
70241;PMS5003;57631;52.218;0.108;2022-07-29T06:08:07;6;6;
70241;PMS5003;57631;52.218;0.108;2022-07-29T06:10:34;9;6;
70241;PMS5003;57631;52.218;0.108;2022-07-29T06:12:58;8;7;
70241;PMS5003;57631;52.218;0.108;2022-07-29T06:15:24;6;6;
70241;PMS5003;57631;52.218;0.108;2022-07-29T06:17:49;8;6;
70241;PMS5003;57631;52.218;0.108;2022-07-29T06:20:14;4;4;
70241;PMS5003;57631;52.218;0.108;2022-07-29T06:22:40;8;6;
70241;PMS5003;57631;52.218;0.108;2022-07-29T06:25:06;6;6;
70241;PMS5003;57631;52.218;0.108;2022-07-29T06:27:31;6;6;
70241;PMS5003;57631;52.218;0.108;2022-07-29T06:29:56;11;9;
70241;PMS5003;57631;52.218;0.108;2022-07-29T06:32:22;7;6;
70241;PMS5003;57631;52.218;0.108;2022-07-29T06:34:47;9;8;
70241;PMS5003;57631;52.218;0.108;2022-07-29T06:37:12;7;7;
70241;PMS5003;57631;52.218;0.108;2022-07-29T06:39:38;6;6;
70241;PMS5003;57631;52.218;0.108;2022-07-29T06:42:04;13;8;
70241;PMS5003;57631;52.218;0.108;2022-07-29T06:44:29;8;8;
70241;PMS5003;57631;52.218;0.108;2022-07-29T06:46:54;6;6;
70241;PMS5003;57631;52.218;0.108;2022-07-29T06:49:20;4;4;
70241;PMS5003;57631;52.218;0.108;2022-07-29T06:51:45;10;10;
70241;PMS5003;57631;52.218;0.108;2022-07-29T06:54:11;7;5;
70241;PMS5003;57631;52.218;0.108;2022-07-29T06:56:37;7;6;
70241;PMS5003;57631;52.218;0.108;2022-07-29T06:59:02;9;4;
70241;PMS5003;57631;52.218;0.108;2022-07-29T07:01:27;4;4;
70241;PMS5003;57631;52.218;0.108;2022-07-29T07:03:52;6;5;
70241;PMS5003;57631;52.218;0.108;2022-07-29T07:06:18;8;6;
70241;PMS5003;57631;52.218;0.108;2022-07-29T07:08:43;9;7;
70241;PMS5003;57631;52.218;0.108;2022-07-29T07:11:09;6;6;
70241;PMS5003;57631;52.218;0.108;2022-07-29T07:13:34;7;7;
70241;PMS5003;57631;52.218;0.108;2022-07-29T07:16:00;4;4;
70241;PMS5003;57631;52.218;0.108;2022-07-29T07:18:25;12;11;
70241;PMS5003;57631;52.218;0.108;2022-07-29T07:20:50;7;6;
70241;PMS5003;57631;52.218;0.108;2022-07-29T07:23:15;7;6;
70241;PMS5003;57631;52.218;0.108;2022-07-29T07:25:41;4;4;
70241;PMS5003;57631;52.218;0.108;2022-07-29T07:28:06;6;6;
70241;PMS5003;57631;52.218;0.108;2022-07-29T07:30:31;4;4;
70241;PMS5003;57631;52.218;0.108;2022-07-29T07:32:57;7;6;
70241;PMS5003;57631;52.218;0.108;2022-07-29T07:35:22;6;3;
70241;PMS5003;57631;52.218;0.108;2022-07-29T07:37:48;3;3;
70241;PMS5003;57631;52.218;0.108;2022-07-29T07:40:13;8;5;
70241;PMS5003;57631;52.218;0.108;2022-07-29T07:42:38;8;3;
70241;PMS5003;57631;52.218;0.108;2022-07-29T07:45:04;4;4;
70241;PMS5003;57631;52.218;0.108;2022-07-29T07:47:29;6;5;
70241;PMS5003;57631;52.218;0.108;2022-07-29T07:49:54;5;5;
70241;PMS5003;57631;52.218;0.108;2022-07-29T07:52:20;6;5;
70241;PMS5003;57631;52.218;0.108;2022-07-29T07:54:45;5;4;
70241;PMS5003;57631;52.218;0.108;2022-07-29T07:57:11;7;7;
70241;PMS5003;57631;52.218;0.108;2022-07-29T07:59:36;8;8;
70241;PMS5003;57631;52.218;0.108;2022-07-29T08:02:01;8;6;
70241;PMS5003;57631;52.218;0.108;2022-07-29T08:04:27;7;7;
70241;PMS5003;57631;52.218;0.108;2022-07-29T08:06:52;10;7;
70241;PMS5003;57631;52.218;0.108;2022-07-29T08:09:17;6;6;
70241;PMS5003;57631;52.218;0.108;2022-07-29T08:11:43;7;5;
70241;PMS5003;57631;52.218;0.108;2022-07-29T08:14:08;11;8;
70241;PMS5003;57631;52.218;0.108;2022-07-29T08:16:33;7;6;
70241;PMS5003;57631;52.218;0.108;2022-07-29T08:18:59;6;6;
70241;PMS5003;57631;52.218;0.108;2022-07-29T08:21:24;4;4;
70241;PMS5003;57631;52.218;0.108;2022-07-29T08:23:50;7;6;
70241;PMS5003;57631;52.218;0.108;2022-07-29T08:26:15;11;8;
70241;PMS5003;57631;52.218;0.108;2022-07-29T08:28:41;5;5;
70241;PMS5003;57631;52.218;0.108;2022-07-29T08:31:06;5;5;
70241;PMS5003;57631;52.218;0.108;2022-07-29T08:33:31;7;6;
70241;PMS5003;57631;52.218;0.108;2022-07-29T08:35:56;4;4;
70241;PMS5003;57631;52.218;0.108;2022-07-29T08:38:22;5;5;
70241;PMS5003;57631;52.218;0.108;2022-07-29T08:40:47;5;3;
70241;PMS5003;57631;52.218;0.108;2022-07-29T08:43:13;5;5;
70241;PMS5003;57631;52.218;0.108;2022-07-29T08:45:41;7;6;
70241;PMS5003;57631;52.218;0.108;2022-07-29T08:48:03;8;5;
70241;PMS5003;57631;52.218;0.108;2022-07-29T08:50:29;3;3;
70241;PMS5003;57631;52.218;0.108;2022-07-29T08:52:54;4;2;
70241;PMS5003;57631;52.218;0.108;2022-07-29T08:55:20;2;2;
70241;PMS5003;57631;52.218;0.108;2022-07-29T08:57:45;3;3;
70241;PMS5003;57631;52.218;0.108;2022-07-29T09:00:10;4;3;
70241;PMS5003;57631;52.218;0.108;2022-07-29T09:02:36;6;4;
70241;PMS5003;57631;52.218;0.108;2022-07-29T09:05:01;4;4;
70241;PMS5003;57631;52.218;0.108;2022-07-29T09:07:26;5;3;
70241;PMS5003;57631;52.218;0.108;2022-07-29T09:09:52;2;2;
70241;PMS5003;57631;52.218;0.108;2022-07-29T09:12:17;3;3;
70241;PMS5003;57631;52.218;0.108;2022-07-29T09:14:43;4;3;
70241;PMS5003;57631;52.218;0.108;2022-07-29T09:17:08;2;2;
70241;PMS5003;57631;52.218;0.108;2022-07-29T09:19:33;4;3;
70241;PMS5003;57631;52.218;0.108;2022-07-29T09:21:59;5;4;
70241;PMS5003;57631;52.218;0.108;2022-07-29T09:24:24;3;3;
70241;PMS5003;57631;52.218;0.108;2022-07-29T09:26:49;4;3;
70241;PMS5003;57631;52.218;0.108;2022-07-29T09:29:16;3;3;
70241;PMS5003;57631;52.218;0.108;2022-07-29T09:31:40;4;3;
70241;PMS5003;57631;52.218;0.108;2022-07-29T09:34:06;3;3;
70241;PMS5003;57631;52.218;0.108;2022-07-29T09:36:31;3;2;
70241;PMS5003;57631;52.218;0.108;2022-07-29T09:38:57;4;2;
70241;PMS5003;57631;52.218;0.108;2022-07-29T09:41:21;3;3;
70241;PMS5003;57631;52.218;0.108;2022-07-29T09:46:12;3;2;
70241;PMS5003;57631;52.218;0.108;2022-07-29T09:48:37;4;3;
70241;PMS5003;57631;52.218;0.108;2022-07-29T09:51:03;6;3;
70241;PMS5003;57631;52.218;0.108;2022-07-29T09:53:30;4;4;
70241;PMS5003;57631;52.218;0.108;2022-07-29T09:55:53;1;1;
70241;PMS5003;57631;52.218;0.108;2022-07-29T09:58:19;3;3;
70241;PMS5003;57631;52.218;0.108;2022-07-29T10:00:44;6;3;
70241;PMS5003;57631;52.218;0.108;2022-07-29T10:03:09;4;2;
70241;PMS5003;57631;52.218;0.108;2022-07-29T10:05:35;4;2;
70241;PMS5003;57631;52.218;0.108;2022-07-29T10:08:00;3;3;
70241;PMS5003;57631;52.218;0.108;2022-07-29T10:10:27;2;1;
70241;PMS5003;57631;52.218;0.108;2022-07-29T10:12:52;2;2;
70241;PMS5003;57631;52.218;0.108;2022-07-29T10:15:16;5;4;
70241;PMS5003;57631;52.218;0.108;2022-07-29T10:17:41;3;1;
70241;PMS5003;57631;52.218;0.108;2022-07-29T10:20:07;2;2;
70241;PMS5003;57631;52.218;0.108;2022-07-29T10:22:32;2;2;
70241;PMS5003;57631;52.218;0.108;2022-07-29T10:24:57;4;3;
70241;PMS5003;57631;52.218;0.108;2022-07-29T10:27:23;2;2;
70241;PMS5003;57631;52.218;0.108;2022-07-29T10:29:48;2;2;
70241;PMS5003;57631;52.218;0.108;2022-07-29T10:32:18;3;2;
70241;PMS5003;57631;52.218;0.108;2022-07-29T10:37:07;3;3;
70241;PMS5003;57631;52.218;0.108;2022-07-29T10:39:33;4;3;
70241;PMS5003;57631;52.218;0.108;2022-07-29T10:41:59;4;3;
70241;PMS5003;57631;52.218;0.108;2022-07-29T10:44:21;5;4;
70241;PMS5003;57631;52.218;0.108;2022-07-29T10:46:45;4;4;
70241;PMS5003;57631;52.218;0.108;2022-07-29T10:49:11;2;2;
70241;PMS5003;57631;52.218;0.108;2022-07-29T10:54:01;6;4;
70241;PMS5003;57631;52.218;0.108;2022-07-29T10:56:27;2;2;
70241;PMS5003;57631;52.218;0.108;2022-07-29T11:03:43;2;2;
70241;PMS5003;57631;52.218;0.108;2022-07-29T11:06:08;2;2;
70241;PMS5003;57631;52.218;0.108;2022-07-29T11:08:33;2;2;
70241;PMS5003;57631;52.218;0.108;2022-07-29T11:15:53;2;2;
70241;PMS5003;57631;52.218;0.108;2022-07-29T11:18:14;1;1;
70241;PMS5003;57631;52.218;0.108;2022-07-29T11:20:40;6;3;
70241;PMS5003;57631;52.218;0.108;2022-07-29T11:25:30;3;2;
70241;PMS5003;57631;52.218;0.108;2022-07-29T11:28:08;2;1;
70241;PMS5003;57631;52.218;0.108;2022-07-29T11:30:21;2;1;
70241;PMS5003;57631;52.218;0.108;2022-07-29T11:32:46;3;1;
70241;PMS5003;57631;52.218;0.108;2022-07-29T11:35:13;1;1;
70241;PMS5003;57631;52.218;0.108;2022-07-29T11:37:37;3;2;
70241;PMS5003;57631;52.218;0.108;2022-07-29T11:40:08;0;0;
70241;PMS5003;57631;52.218;0.108;2022-07-29T11:44:54;3;2;
70241;PMS5003;57631;52.218;0.108;2022-07-29T11:47:19;2;2;
70241;PMS5003;57631;52.218;0.108;2022-07-29T11:49:43;7;5;
70241;PMS5003;57631;52.218;0.108;2022-07-29T11:52:08;3;1;
70241;PMS5003;57631;52.218;0.108;2022-07-29T11:54:34;3;3;
70241;PMS5003;57631;52.218;0.108;2022-07-29T11:56:59;3;2;
70241;PMS5003;57631;52.218;0.108;2022-07-29T11:59:25;1;1;
70241;PMS5003;57631;52.218;0.108;2022-07-29T12:01:53;1;1;
70241;PMS5003;57631;52.218;0.108;2022-07-29T12:04:15;1;1;
70241;PMS5003;57631;52.218;0.108;2022-07-29T12:06:40;1;1;
70241;PMS5003;57631;52.218;0.108;2022-07-29T12:09:06;2;2;
70241;PMS5003;57631;52.218;0.108;2022-07-29T12:11:31;1;1;
70241;PMS5003;57631;52.218;0.108;2022-07-29T12:13:56;2;1;
70241;PMS5003;57631;52.218;0.108;2022-07-29T12:16:22;3;1;
70241;PMS5003;57631;52.218;0.108;2022-07-29T12:21:12;1;1;
70241;PMS5003;57631;52.218;0.108;2022-07-29T12:23:38;3;3;
70241;PMS5003;57631;52.218;0.108;2022-07-29T12:26:04;1;1;
70241;PMS5003;57631;52.218;0.108;2022-07-29T12:28:28;4;2;
70241;PMS5003;57631;52.218;0.108;2022-07-29T12:30:54;1;1;
70241;PMS5003;57631;52.218;0.108;2022-07-29T12:33:20;2;2;
70241;PMS5003;57631;52.218;0.108;2022-07-29T12:35:45;3;1;
70241;PMS5003;57631;52.218;0.108;2022-07-29T12:38:10;7;3;
70241;PMS5003;57631;52.218;0.108;2022-07-29T12:40:35;3;3;
70241;PMS5003;57631;52.218;0.108;2022-07-29T12:45:28;3;2;
70241;PMS5003;57631;52.218;0.108;2022-07-29T12:47:51;4;1;
70241;PMS5003;57631;52.218;0.108;2022-07-29T12:50:16;2;2;
70241;PMS5003;57631;52.218;0.108;2022-07-29T12:52:41;2;2;
70241;PMS5003;57631;52.218;0.108;2022-07-29T12:55:07;2;2;
70241;PMS5003;57631;52.218;0.108;2022-07-29T12:57:35;6;3;
70241;PMS5003;57631;52.218;0.108;2022-07-29T13:00:02;4;2;
70241;PMS5003;57631;52.218;0.108;2022-07-29T13:02:23;2;2;
70241;PMS5003;57631;52.218;0.108;2022-07-29T13:07:13;3;3;
70241;PMS5003;57631;52.218;0.108;2022-07-29T13:09:39;4;4;
70241;PMS5003;57631;52.218;0.108;2022-07-29T13:12:05;5;3;
70241;PMS5003;57631;52.218;0.108;2022-07-29T13:14:30;3;3;
70241;PMS5003;57631;52.218;0.108;2022-07-29T13:19:31;2;2;
70241;PMS5003;57631;52.218;0.108;2022-07-29T13:21:45;3;1;
70241;PMS5003;57631;52.218;0.108;2022-07-29T13:24:10;4;2;
70241;PMS5003;57631;52.218;0.108;2022-07-29T13:26:39;4;2;
70241;PMS5003;57631;52.218;0.108;2022-07-29T13:29:01;4;3;
70241;PMS5003;57631;52.218;0.108;2022-07-29T13:31:26;4;3;
70241;PMS5003;57631;52.218;0.108;2022-07-29T13:33:52;8;4;
70241;PMS5003;57631;52.218;0.108;2022-07-29T13:36:17;3;3;
70241;PMS5003;57631;52.218;0.108;2022-07-29T13:38:42;2;2;
70241;PMS5003;57631;52.218;0.108;2022-07-29T13:41:08;5;2;
70241;PMS5003;57631;52.218;0.108;2022-07-29T13:43:33;2;2;
70241;PMS5003;57631;52.218;0.108;2022-07-29T13:45:58;4;3;
70241;PMS5003;57631;52.218;0.108;2022-07-29T13:48:24;4;2;
70241;PMS5003;57631;52.218;0.108;2022-07-29T13:50:49;2;2;
70241;PMS5003;57631;52.218;0.108;2022-07-29T13:53:14;3;3;
70241;PMS5003;57631;52.218;0.108;2022-07-29T13:55:40;2;2;
70241;PMS5003;57631;52.218;0.108;2022-07-29T13:58:05;3;3;
70241;PMS5003;57631;52.218;0.108;2022-07-29T14:00:30;5;5;
70241;PMS5003;57631;52.218;0.108;2022-07-29T14:02:56;3;3;
70241;PMS5003;57631;52.218;0.108;2022-07-29T14:05:21;3;3;
70241;PMS5003;57631;52.218;0.108;2022-07-29T14:07:46;2;2;
70241;PMS5003;57631;52.218;0.108;2022-07-29T14:10:12;4;4;
70241;PMS5003;57631;52.218;0.108;2022-07-29T14:12:37;6;3;
70241;PMS5003;57631;52.218;0.108;2022-07-29T14:15:02;3;3;
70241;PMS5003;57631;52.218;0.108;2022-07-29T14:17:27;3;3;
70241;PMS5003;57631;52.218;0.108;2022-07-29T14:19:53;7;3;
70241;PMS5003;57631;52.218;0.108;2022-07-29T14:22:18;5;5;
70241;PMS5003;57631;52.218;0.108;2022-07-29T14:24:43;3;3;
70241;PMS5003;57631;52.218;0.108;2022-07-29T14:27:09;5;5;
70241;PMS5003;57631;52.218;0.108;2022-07-29T14:29:34;5;3;
70241;PMS5003;57631;52.218;0.108;2022-07-29T14:31:59;5;3;
70241;PMS5003;57631;52.218;0.108;2022-07-29T14:34:25;7;4;
70241;PMS5003;57631;52.218;0.108;2022-07-29T14:36:50;5;4;
70241;PMS5003;57631;52.218;0.108;2022-07-29T14:39:15;8;5;
70241;PMS5003;57631;52.218;0.108;2022-07-29T14:41:41;6;4;
70241;PMS5003;57631;52.218;0.108;2022-07-29T14:44:06;5;5;
70241;PMS5003;57631;52.218;0.108;2022-07-29T14:46:31;4;4;
70241;PMS5003;57631;52.218;0.108;2022-07-29T14:48:57;6;4;
70241;PMS5003;57631;52.218;0.108;2022-07-29T14:51:22;4;4;
70241;PMS5003;57631;52.218;0.108;2022-07-29T14:53:47;5;5;
70241;PMS5003;57631;52.218;0.108;2022-07-29T14:56:12;4;4;
70241;PMS5003;57631;52.218;0.108;2022-07-29T14:58:38;3;3;
70241;PMS5003;57631;52.218;0.108;2022-07-29T15:01:03;4;4;
70241;PMS5003;57631;52.218;0.108;2022-07-29T15:03:28;4;4;
70241;PMS5003;57631;52.218;0.108;2022-07-29T15:05:54;4;4;
70241;PMS5003;57631;52.218;0.108;2022-07-29T15:08:19;4;3;
70241;PMS5003;57631;52.218;0.108;2022-07-29T15:10:44;3;3;
70241;PMS5003;57631;52.218;0.108;2022-07-29T15:13:10;5;5;
70241;PMS5003;57631;52.218;0.108;2022-07-29T15:15:35;4;4;
70241;PMS5003;57631;52.218;0.108;2022-07-29T15:18:00;5;5;
70241;PMS5003;57631;52.218;0.108;2022-07-29T15:20:26;5;4;
70241;PMS5003;57631;52.218;0.108;2022-07-29T15:22:51;5;4;
70241;PMS5003;57631;52.218;0.108;2022-07-29T15:25:16;4;4;
70241;PMS5003;57631;52.218;0.108;2022-07-29T15:27:41;4;4;
70241;PMS5003;57631;52.218;0.108;2022-07-29T15:30:07;8;5;
70241;PMS5003;57631;52.218;0.108;2022-07-29T15:32:32;5;5;
70241;PMS5003;57631;52.218;0.108;2022-07-29T15:34:57;3;3;
70241;PMS5003;57631;52.218;0.108;2022-07-29T15:37:23;3;3;
70241;PMS5003;57631;52.218;0.108;2022-07-29T15:39:48;3;3;
70241;PMS5003;57631;52.218;0.108;2022-07-29T15:42:13;3;3;
70241;PMS5003;57631;52.218;0.108;2022-07-29T15:44:39;6;5;
70241;PMS5003;57631;52.218;0.108;2022-07-29T15:47:04;6;6;
70241;PMS5003;57631;52.218;0.108;2022-07-29T15:49:30;6;6;
70241;PMS5003;57631;52.218;0.108;2022-07-29T15:51:55;4;4;
70241;PMS5003;57631;52.218;0.108;2022-07-29T15:54:20;4;4;
70241;PMS5003;57631;52.218;0.108;2022-07-29T15:56:46;3;3;
70241;PMS5003;57631;52.218;0.108;2022-07-29T15:59:11;5;5;
70241;PMS5003;57631;52.218;0.108;2022-07-29T16:01:36;3;3;
70241;PMS5003;57631;52.218;0.108;2022-07-29T16:04:02;5;5;
70241;PMS5003;57631;52.218;0.108;2022-07-29T16:06:27;7;5;
70241;PMS5003;57631;52.218;0.108;2022-07-29T16:08:52;5;5;
70241;PMS5003;57631;52.218;0.108;2022-07-29T16:11:17;6;4;
70241;PMS5003;57631;52.218;0.108;2022-07-29T16:13:43;4;4;
70241;PMS5003;57631;52.218;0.108;2022-07-29T16:16:08;5;5;
70241;PMS5003;57631;52.218;0.108;2022-07-29T16:18:33;6;4;
70241;PMS5003;57631;52.218;0.108;2022-07-29T16:20:59;4;4;
70241;PMS5003;57631;52.218;0.108;2022-07-29T16:23:24;4;4;
70241;PMS5003;57631;52.218;0.108;2022-07-29T16:25:49;4;4;
70241;PMS5003;57631;52.218;0.108;2022-07-29T16:28:15;5;5;
70241;PMS5003;57631;52.218;0.108;2022-07-29T16:30:40;5;5;
70241;PMS5003;57631;52.218;0.108;2022-07-29T16:33:06;5;4;
70241;PMS5003;57631;52.218;0.108;2022-07-29T16:35:30;7;4;
70241;PMS5003;57631;52.218;0.108;2022-07-29T16:37:56;3;3;
70241;PMS5003;57631;52.218;0.108;2022-07-29T16:40:21;6;5;
70241;PMS5003;57631;52.218;0.108;2022-07-29T16:42:47;5;5;
70241;PMS5003;57631;52.218;0.108;2022-07-29T16:45:12;5;5;
70241;PMS5003;57631;52.218;0.108;2022-07-29T16:47:38;6;6;
70241;PMS5003;57631;52.218;0.108;2022-07-29T16:50:03;5;5;
70241;PMS5003;57631;52.218;0.108;2022-07-29T16:52:28;3;3;
70241;PMS5003;57631;52.218;0.108;2022-07-29T16:54:53;5;5;
70241;PMS5003;57631;52.218;0.108;2022-07-29T16:57:19;6;5;
70241;PMS5003;57631;52.218;0.108;2022-07-29T16:59:44;3;3;
70241;PMS5003;57631;52.218;0.108;2022-07-29T17:02:09;2;2;
70241;PMS5003;57631;52.218;0.108;2022-07-29T17:04:35;4;4;
70241;PMS5003;57631;52.218;0.108;2022-07-29T17:07:00;5;5;
70241;PMS5003;57631;52.218;0.108;2022-07-29T17:09:25;3;3;